Time;durP1;ratioP1;P1;durP2;ratioP2;P2;SDS_P1;SDS_P2;PMS_P1;PMS_P2;Temp;Humidity;BMP_temperature;BMP_pressure;BME280_temperature;BME280_humidity;BME280_pressure;Samples;Min_cycle;Max_cycle;Signal;HPM_P1;HPM_P2
2023/05/16 00:00:08;;;;;;;6.30;2.58;;;;;;;;;;5066519;28;20058;-77
2023/05/16 00:02:38;;;;;;;3.35;2.72;;;;;;;;;;5063738;28;20572;-77
2023/05/16 00:05:06;;;;;;;4.25;2.35;;;;;;;;;;5058838;28;20033;-77
2023/05/16 00:07:33;;;;;;;2.80;1.92;;;;;;;;;;5068344;28;20124;-78
2023/05/16 00:09:59;;;;;;;6.05;3.05;;;;;;;;;;5066648;28;20594;-78
2023/05/16 00:12:26;;;;;;;5.38;2.70;;;;;;;;;;5065202;28;20386;-78
2023/05/16 00:14:54;;;;;;;3.88;2.20;;;;;;;;;;5067053;28;20024;-79
2023/05/16 00:17:20;;;;;;;2.78;2.10;;;;;;;;;;5063149;28;20024;-78
2023/05/16 00:19:57;;;;;;;5.97;2.40;;;;;;;;;;5067424;28;20515;-77
2023/05/16 00:22:24;;;;;;;3.78;2.40;;;;;;;;;;5061330;28;20510;-77
2023/05/16 00:24:50;;;;;;;5.82;2.33;;;;;;;;;;5058733;28;20020;-77
2023/05/16 00:27:16;;;;;;;4.20;2.17;;;;;;;;;;5064648;28;20025;-76
2023/05/16 00:29:42;;;;;;;6.38;2.50;;;;;;;;;;5060721;28;20033;-78
2023/05/16 00:32:08;;;;;;;2.97;2.30;;;;;;;;;;5056124;28;20028;-77
2023/05/16 00:34:35;;;;;;;3.22;2.15;;;;;;;;;;5064522;28;20033;-77
2023/05/16 00:37:01;;;;;;;3.70;2.38;;;;;;;;;;5064731;28;20119;-76
2023/05/16 00:39:27;;;;;;;3.20;2.53;;;;;;;;;;5064973;28;20028;-78
2023/05/16 00:41:53;;;;;;;3.90;2.35;;;;;;;;;;5064462;28;20034;-76
2023/05/16 00:44:20;;;;;;;3.80;2.33;;;;;;;;;;5071568;28;20033;-76
2023/05/16 00:46:46;;;;;;;2.95;2.15;;;;;;;;;;5068544;28;20137;-77
2023/05/16 00:49:12;;;;;;;5.85;2.50;;;;;;;;;;5059875;28;20453;-77
2023/05/16 00:51:40;;;;;;;4.85;2.20;;;;;;;;;;5070184;28;20501;-77
2023/05/16 00:54:10;;;;;;;5.80;2.40;;;;;;;;;;5078171;28;20059;-77
2023/05/16 00:56:36;;;;;;;3.95;2.20;;;;;;;;;;5061816;28;20024;-77
2023/05/16 00:59:02;;;;;;;3.92;2.72;;;;;;;;;;5059254;28;20039;-77
2023/05/16 01:01:30;;;;;;;4.20;2.75;;;;;;;;;;5065025;28;20020;-77
2023/05/16 01:03:59;;;;;;;4.95;2.42;;;;;;;;;;5072403;28;20028;-76
2023/05/16 01:06:27;;;;;;;6.53;2.22;;;;;;;;;;5061118;28;20185;-77
2023/05/16 01:08:53;;;;;;;6.05;2.20;;;;;;;;;;5066283;28;20067;-76
2023/05/16 01:11:38;;;;;;;4.22;2.30;;;;;;;;;;5062522;28;20012;-78
2023/05/16 01:14:22;;;;;;;7.90;2.67;;;;;;;;;;5072414;28;20525;-78
2023/05/16 01:16:48;;;;;;;2.58;1.90;;;;;;;;;;5061147;28;20036;-78
2023/05/16 01:19:31;;;;;;;6.22;2.85;;;;;;;;;;5065200;28;20039;-76
2023/05/16 01:22:01;;;;;;;5.88;2.50;;;;;;;;;;5065271;28;20055;-76
2023/05/16 01:24:34;;;;;;;3.45;2.33;;;;;;;;;;5064771;28;20036;-77
2023/05/16 01:27:02;;;;;;;4.05;2.20;;;;;;;;;;5062777;28;20221;-77
2023/05/16 01:29:28;;;;;;;3.00;2.40;;;;;;;;;;5064445;28;20025;-77
2023/05/16 01:31:54;;;;;;;4.97;2.85;;;;;;;;;;5062202;28;20027;-76
2023/05/16 01:34:20;;;;;;;8.50;2.80;;;;;;;;;;5062436;28;20070;-77
2023/05/16 01:37:05;;;;;;;3.33;2.40;;;;;;;;;;5055491;28;20389;-77
2023/05/16 01:39:37;;;;;;;4.60;2.25;;;;;;;;;;5063441;28;20042;-77
2023/05/16 01:42:05;;;;;;;5.10;2.70;;;;;;;;;;5062290;28;20029;-77
2023/05/16 01:44:33;;;;;;;3.95;2.22;;;;;;;;;;5064790;28;20032;-77
2023/05/16 01:47:01;;;;;;;4.47;2.30;;;;;;;;;;5061586;28;20392;-77
2023/05/16 01:49:51;;;;;;;8.13;2.55;;;;;;;;;;5068065;28;20032;-77
2023/05/16 01:52:26;;;;;;;3.50;2.13;;;;;;;;;;5068686;28;20112;-76
2023/05/16 01:54:53;;;;;;;4.47;2.53;;;;;;;;;;5063401;28;20055;-77
2023/05/16 01:57:23;;;;;;;3.88;2.20;;;;;;;;;;5065154;28;20042;-77
2023/05/16 01:59:50;;;;;;;6.43;2.40;;;;;;;;;;5057870;28;20039;-77
2023/05/16 02:02:19;;;;;;;4.30;2.30;;;;;;;;;;5067652;28;20082;-77
2023/05/16 02:04:45;;;;;;;3.75;2.25;;;;;;;;;;5067604;28;20077;-77
2023/05/16 02:07:13;;;;;;;4.72;2.60;;;;;;;;;;5064747;28;20376;-77
2023/05/16 02:09:39;;;;;;;4.05;2.65;;;;;;;;;;5067817;28;20123;-77
2023/05/16 02:12:06;;;;;;;5.20;2.58;;;;;;;;;;5066017;28;20074;-77
2023/05/16 02:14:33;;;;;;;4.88;2.83;;;;;;;;;;5068612;28;20108;-76
2023/05/16 02:16:59;;;;;;;4.93;2.65;;;;;;;;;;5083314;28;20033;-77
2023/05/16 02:19:25;;;;;;;4.10;2.50;;;;;;;;;;5062107;28;20044;-77
2023/05/16 02:21:51;;;;;;;4.28;2.85;;;;;;;;;;5064167;28;20048;-77
2023/05/16 02:24:17;;;;;;;3.42;3.13;;;;;;;;;;5056427;28;20112;-77
2023/05/16 02:26:44;;;;;;;5.85;3.10;;;;;;;;;;5059689;28;20035;-77
2023/05/16 02:29:10;;;;;;;6.35;2.60;;;;;;;;;;5062528;28;20517;-77
2023/05/16 02:31:36;;;;;;;3.30;2.33;;;;;;;;;;5066187;28;20024;-75
2023/05/16 02:34:02;;;;;;;4.93;2.55;;;;;;;;;;5064626;28;20016;-76
2023/05/16 02:36:29;;;;;;;5.97;2.90;;;;;;;;;;5064368;28;20047;-77
2023/05/16 02:38:55;;;;;;;4.53;2.80;;;;;;;;;;5070291;28;20034;-77
2023/05/16 02:41:25;;;;;;;3.83;2.50;;;;;;;;;;5085101;28;20028;-77
2023/05/16 02:43:54;;;;;;;3.45;2.97;;;;;;;;;;5064568;28;20031;-77
2023/05/16 02:46:20;;;;;;;4.10;2.65;;;;;;;;;;5070219;28;20028;-77
2023/05/16 02:48:46;;;;;;;3.50;2.25;;;;;;;;;;5071123;28;20077;-78
2023/05/16 02:51:12;;;;;;;5.00;2.25;;;;;;;;;;5079102;28;20020;-77
2023/05/16 02:53:39;;;;;;;6.35;2.67;;;;;;;;;;5064276;28;20046;-77
2023/05/16 02:56:05;;;;;;;5.88;2.88;;;;;;;;;;5070144;28;20040;-77
2023/05/16 02:58:32;;;;;;;5.65;2.65;;;;;;;;;;5060459;28;20198;-77
2023/05/16 03:00:58;;;;;;;3.42;2.70;;;;;;;;;;5072899;28;20032;-78
2023/05/16 03:03:25;;;;;;;2.78;2.17;;;;;;;;;;5063939;28;20033;-78
2023/05/16 03:05:51;;;;;;;4.22;2.22;;;;;;;;;;5069285;28;20098;-77
2023/05/16 03:08:21;;;;;;;3.67;2.45;;;;;;;;;;5073661;28;20074;-77
2023/05/16 03:10:47;;;;;;;7.53;3.20;;;;;;;;;;5083146;28;20055;-77
2023/05/16 03:13:13;;;;;;;5.13;2.67;;;;;;;;;;5064946;28;20043;-77
2023/05/16 03:15:39;;;;;;;5.75;2.35;;;;;;;;;;5068787;28;20731;-77
2023/05/16 03:18:08;;;;;;;5.38;2.83;;;;;;;;;;5071626;28;20024;-77
2023/05/16 03:20:34;;;;;;;5.10;2.63;;;;;;;;;;5063928;28;20097;-77
2023/05/16 03:23:00;;;;;;;8.18;2.75;;;;;;;;;;5058079;28;20055;-78
2023/05/16 03:25:26;;;;;;;6.63;3.05;;;;;;;;;;5065153;28;20497;-77
2023/05/16 03:27:52;;;;;;;4.13;3.03;;;;;;;;;;5061475;28;20469;-77
2023/05/16 03:30:19;;;;;;;4.60;2.78;;;;;;;;;;5064743;28;20017;-77
2023/05/16 03:32:46;;;;;;;3.47;2.70;;;;;;;;;;5056786;28;20016;-76
2023/05/16 03:35:12;;;;;;;5.35;2.90;;;;;;;;;;5063109;28;20049;-77
2023/05/16 03:37:38;;;;;;;5.00;3.13;;;;;;;;;;5071987;28;20066;-78
2023/05/16 03:40:07;;;;;;;5.43;3.30;;;;;;;;;;5064595;28;20119;-77
2023/05/16 03:42:34;;;;;;;13.93;2.92;;;;;;;;;;5067941;28;20395;-77
2023/05/16 03:45:00;;;;;;;3.85;2.70;;;;;;;;;;5059854;28;20033;-77
2023/05/16 03:47:29;;;;;;;5.38;2.80;;;;;;;;;;5065298;28;20586;-77
2023/05/16 03:49:56;;;;;;;8.02;3.22;;;;;;;;;;5059675;28;20112;-77
2023/05/16 03:52:22;;;;;;;7.38;2.70;;;;;;;;;;5064912;28;20032;-77
2023/05/16 03:54:48;;;;;;;4.80;2.50;;;;;;;;;;5059475;28;20021;-77
2023/05/16 03:57:15;;;;;;;4.55;2.58;;;;;;;;;;5064571;28;20032;-76
2023/05/16 03:59:42;;;;;;;3.38;2.67;;;;;;;;;;5065682;28;20071;-76
2023/05/16 04:02:08;;;;;;;7.07;2.90;;;;;;;;;;5067024;28;20028;-77
2023/05/16 04:04:34;;;;;;;3.33;2.40;;;;;;;;;;5071711;28;20043;-77
2023/05/16 04:07:01;;;;;;;5.57;2.70;;;;;;;;;;5068394;28;20501;-77
2023/05/16 04:09:27;;;;;;;7.45;2.50;;;;;;;;;;5061479;28;20533;-78
2023/05/16 04:11:56;;;;;;;5.13;3.08;;;;;;;;;;5066955;28;20062;-77
2023/05/16 04:14:23;;;;;;;3.95;2.85;;;;;;;;;;5053244;28;20033;-76
2023/05/16 04:16:51;;;;;;;4.53;2.80;;;;;;;;;;5067108;28;20556;-77
2023/05/16 04:19:18;;;;;;;5.65;2.78;;;;;;;;;;5062559;28;20036;-78
2023/05/16 04:21:44;;;;;;;4.50;2.67;;;;;;;;;;5054969;28;20537;-76
2023/05/16 04:24:10;;;;;;;3.63;2.60;;;;;;;;;;5061869;28;20110;-76
2023/05/16 04:26:36;;;;;;;6.93;2.95;;;;;;;;;;5065348;28;20024;-77
2023/05/16 04:29:03;;;;;;;4.45;2.67;;;;;;;;;;5069603;28;20643;-76
2023/05/16 04:31:30;;;;;;;4.53;3.00;;;;;;;;;;5058595;28;20110;-78
2023/05/16 04:33:59;;;;;;;4.32;2.58;;;;;;;;;;5069123;28;20017;-77
2023/05/16 04:36:28;;;;;;;3.72;2.60;;;;;;;;;;5067980;28;20033;-76
2023/05/16 04:38:55;;;;;;;7.57;2.92;;;;;;;;;;5066018;28;20039;-77
2023/05/16 04:41:21;;;;;;;4.63;2.63;;;;;;;;;;5069177;28;20059;-76
2023/05/16 04:43:47;;;;;;;4.88;2.50;;;;;;;;;;5071162;28;20021;-77
2023/05/16 04:46:17;;;;;;;3.75;2.67;;;;;;;;;;5062996;28;20202;-76
2023/05/16 04:48:43;;;;;;;5.30;3.15;;;;;;;;;;5082280;28;20027;-77
2023/05/16 04:51:09;;;;;;;6.57;2.90;;;;;;;;;;5064404;28;20043;-76
2023/05/16 04:53:35;;;;;;;4.60;2.50;;;;;;;;;;5057570;28;20039;-77
2023/05/16 04:56:01;;;;;;;4.15;2.47;;;;;;;;;;5070408;28;20012;-77
2023/05/16 04:58:27;;;;;;;4.45;2.70;;;;;;;;;;5063265;28;20418;-76
2023/05/16 05:00:54;;;;;;;4.78;2.50;;;;;;;;;;5062949;28;20029;-77
2023/05/16 05:03:20;;;;;;;4.25;2.42;;;;;;;;;;5060625;28;20024;-77
2023/05/16 05:05:47;;;;;;;6.07;2.90;;;;;;;;;;5065702;28;20024;-76
2023/05/16 05:08:13;;;;;;;9.27;2.97;;;;;;;;;;5064054;28;20025;-77
2023/05/16 05:10:40;;;;;;;8.63;3.03;;;;;;;;;;5066544;28;20625;-77
2023/05/16 05:13:06;;;;;;;3.20;2.70;;;;;;;;;;5067182;28;20103;-77
2023/05/16 05:15:32;;;;;;;5.80;2.65;;;;;;;;;;5066464;28;20032;-77
2023/05/16 05:17:59;;;;;;;7.55;3.63;;;;;;;;;;5062346;28;20502;-77
2023/05/16 05:20:26;;;;;;;5.28;2.45;;;;;;;;;;5069609;28;20020;-77
2023/05/16 05:22:53;;;;;;;3.90;2.80;;;;;;;;;;5072104;28;20048;-78
2023/05/16 05:25:19;;;;;;;4.28;2.60;;;;;;;;;;5062350;28;20032;-77
2023/05/16 05:27:45;;;;;;;9.55;3.03;;;;;;;;;;5057494;28;20040;-77
2023/05/16 05:30:11;;;;;;;4.60;3.13;;;;;;;;;;5073725;28;20025;-77
2023/05/16 05:32:37;;;;;;;6.82;2.80;;;;;;;;;;5067340;28;20047;-77
2023/05/16 05:35:03;;;;;;;5.20;3.00;;;;;;;;;;5060786;28;20024;-78
2023/05/16 05:37:30;;;;;;;5.38;2.80;;;;;;;;;;5057139;28;20020;-78
2023/05/16 05:39:56;;;;;;;9.98;2.63;;;;;;;;;;5059033;28;20051;-76
2023/05/16 05:42:22;;;;;;;6.10;3.17;;;;;;;;;;5061954;28;20387;-77
2023/05/16 05:44:48;;;;;;;4.70;3.33;;;;;;;;;;5079834;28;20035;-77
2023/05/16 05:47:15;;;;;;;5.53;2.75;;;;;;;;;;5064059;28;20043;-76
2023/05/16 05:49:41;;;;;;;3.78;3.17;;;;;;;;;;5057943;28;20475;-77
2023/05/16 05:52:07;;;;;;;8.38;2.78;;;;;;;;;;5062925;28;20025;-76
2023/05/16 05:54:33;;;;;;;7.10;3.85;;;;;;;;;;5059949;28;20020;-77
2023/05/16 05:56:59;;;;;;;6.53;2.80;;;;;;;;;;5060475;28;20033;-77
2023/05/16 05:59:26;;;;;;;4.93;3.22;;;;;;;;;;5065074;28;20286;-77
2023/05/16 06:01:52;;;;;;;5.13;3.92;;;;;;;;;;5064856;28;20142;-76
2023/05/16 06:04:21;;;;;;;4.93;2.97;;;;;;;;;;5064551;28;20490;-76
2023/05/16 06:06:47;;;;;;;5.30;3.17;;;;;;;;;;5065798;28;20467;-76
2023/05/16 06:09:14;;;;;;;6.28;3.00;;;;;;;;;;5068102;28;20060;-77
2023/05/16 06:11:40;;;;;;;11.60;3.55;;;;;;;;;;5068988;28;20028;-77
2023/05/16 06:14:06;;;;;;;8.20;2.90;;;;;;;;;;5068663;28;20024;-77
2023/05/16 06:16:32;;;;;;;4.45;2.63;;;;;;;;;;5066921;28;20086;-77
2023/05/16 06:18:58;;;;;;;10.60;3.08;;;;;;;;;;5064777;28;20119;-77
2023/05/16 06:21:29;;;;;;;9.80;3.50;;;;;;;;;;5060637;28;20032;-77
2023/05/16 06:23:55;;;;;;;6.97;2.88;;;;;;;;;;5062571;28;20460;-77
2023/05/16 06:26:21;;;;;;;8.77;3.10;;;;;;;;;;5070335;28;20031;-76
2023/05/16 06:28:47;;;;;;;5.63;2.90;;;;;;;;;;5060435;28;20323;-77
2023/05/16 06:31:13;;;;;;;6.28;3.10;;;;;;;;;;5062720;28;20059;-75
2023/05/16 06:33:40;;;;;;;6.65;2.95;;;;;;;;;;5069386;28;20293;-77
2023/05/16 06:36:06;;;;;;;6.90;2.60;;;;;;;;;;5073375;28;20036;-76
2023/05/16 06:38:32;;;;;;;7.05;3.45;;;;;;;;;;5061822;28;20115;-77
2023/05/16 06:40:58;;;;;;;6.95;3.67;;;;;;;;;;5070707;28;20036;-76
2023/05/16 06:43:24;;;;;;;4.40;2.88;;;;;;;;;;5059274;28;20029;-78
2023/05/16 06:45:50;;;;;;;7.43;3.20;;;;;;;;;;5069587;28;20055;-77
2023/05/16 06:48:18;;;;;;;8.55;3.40;;;;;;;;;;5062906;28;20775;-76
2023/05/16 06:50:50;;;;;;;5.82;2.90;;;;;;;;;;5062597;28;20055;-76
2023/05/16 06:53:17;;;;;;;4.18;2.90;;;;;;;;;;5069090;28;20025;-77
2023/05/16 06:55:43;;;;;;;5.85;2.95;;;;;;;;;;5060404;28;20179;-77
2023/05/16 06:58:09;;;;;;;7.75;4.20;;;;;;;;;;5061017;28;20059;-76
2023/05/16 07:00:35;;;;;;;5.40;3.13;;;;;;;;;;5064780;28;20096;-77
2023/05/16 07:03:02;;;;;;;4.32;2.88;;;;;;;;;;5055982;28;20036;-77
2023/05/16 07:05:28;;;;;;;6.72;3.13;;;;;;;;;;5062099;28;20527;-78
2023/05/16 07:07:54;;;;;;;6.97;3.00;;;;;;;;;;5069240;28;20025;-77
2023/05/16 07:10:21;;;;;;;9.20;3.40;;;;;;;;;;5062306;28;20017;-76
2023/05/16 07:12:47;;;;;;;6.50;3.35;;;;;;;;;;5062465;28;20031;-77
2023/05/16 07:15:13;;;;;;;8.15;3.10;;;;;;;;;;5058015;28;20081;-77
2023/05/16 07:17:40;;;;;;;6.70;3.35;;;;;;;;;;5058030;28;20433;-77
2023/05/16 07:20:08;;;;;;;9.30;2.90;;;;;;;;;;5059244;28;20089;-77
2023/05/16 07:22:35;;;;;;;7.68;3.67;;;;;;;;;;5057914;28;20453;-78
2023/05/16 07:25:01;;;;;;;5.95;2.97;;;;;;;;;;5060987;28;20017;-76
2023/05/16 07:27:31;;;;;;;7.07;3.00;;;;;;;;;;5059637;28;20024;-76
2023/05/16 07:29:57;;;;;;;10.32;3.72;;;;;;;;;;5064838;28;20021;-77
2023/05/16 07:32:23;;;;;;;22.92;5.07;;;;;;;;;;5057618;28;20644;-77
2023/05/16 07:34:49;;;;;;;6.88;3.90;;;;;;;;;;5057592;28;20032;-77
2023/05/16 07:37:16;;;;;;;6.70;3.13;;;;;;;;;;5058438;28;20394;-77
2023/05/16 07:39:42;;;;;;;7.38;3.13;;;;;;;;;;5062344;28;20032;-77
2023/05/16 07:42:08;;;;;;;6.50;3.20;;;;;;;;;;5066639;28;20516;-77
2023/05/16 07:44:34;;;;;;;8.27;3.35;;;;;;;;;;5069326;28;20060;-77
2023/05/16 07:47:03;;;;;;;5.60;3.30;;;;;;;;;;5060507;28;20036;-77
2023/05/16 07:49:29;;;;;;;14.75;4.68;;;;;;;;;;5063907;28;20023;-78
2023/05/16 07:51:55;;;;;;;9.65;3.55;;;;;;;;;;5058170;28;20025;-76
2023/05/16 07:54:22;;;;;;;6.75;3.38;;;;;;;;;;5065483;28;20094;-77
2023/05/16 07:56:48;;;;;;;8.20;3.63;;;;;;;;;;5059488;28;20450;-77
2023/05/16 07:59:14;;;;;;;8.45;3.30;;;;;;;;;;5066267;28;20029;-77
2023/05/16 08:01:40;;;;;;;6.82;3.97;;;;;;;;;;5063859;28;20024;-78
2023/05/16 08:04:06;;;;;;;6.65;3.28;;;;;;;;;;5071158;28;20115;-76
2023/05/16 08:06:35;;;;;;;8.13;4.13;;;;;;;;;;5072015;28;20033;-77
2023/05/16 08:09:02;;;;;;;9.43;3.40;;;;;;;;;;5065947;28;20359;-77
2023/05/16 08:11:28;;;;;;;10.38;3.38;;;;;;;;;;5063403;28;20079;-77
2023/05/16 08:13:54;;;;;;;7.60;3.80;;;;;;;;;;5064914;28;20029;-77
2023/05/16 08:16:20;;;;;;;5.13;3.97;;;;;;;;;;5062391;28;20165;-77
2023/05/16 08:18:46;;;;;;;9.35;4.00;;;;;;;;;;5066134;28;20063;-76
2023/05/16 08:21:13;;;;;;;12.18;4.32;;;;;;;;;;5056131;28;20032;-76
2023/05/16 08:23:39;;;;;;;10.27;5.20;;;;;;;;;;5067136;28;20040;-77
2023/05/16 08:26:05;;;;;;;7.10;4.05;;;;;;;;;;5065274;28;20036;-77
2023/05/16 08:28:32;;;;;;;11.70;4.68;;;;;;;;;;5065338;28;20024;-77
2023/05/16 08:30:58;;;;;;;8.73;3.58;;;;;;;;;;5081163;28;20602;-77
2023/05/16 08:33:24;;;;;;;7.57;4.47;;;;;;;;;;5063593;28;20070;-77
2023/05/16 08:35:51;;;;;;;8.13;4.00;;;;;;;;;;5069151;28;20025;-78
2023/05/16 08:38:18;;;;;;;7.05;3.83;;;;;;;;;;5066701;28;20461;-77
2023/05/16 08:40:44;;;;;;;8.07;4.10;;;;;;;;;;5061613;28;20335;-77
2023/05/16 08:43:10;;;;;;;13.60;4.13;;;;;;;;;;5063617;28;20028;-77
2023/05/16 08:45:36;;;;;;;8.40;4.32;;;;;;;;;;5064789;28;20128;-77
2023/05/16 08:48:04;;;;;;;15.88;5.22;;;;;;;;;;5066039;28;20546;-77
2023/05/16 08:50:31;;;;;;;6.32;3.83;;;;;;;;;;5064281;28;20099;-77
2023/05/16 08:52:57;;;;;;;13.80;4.90;;;;;;;;;;5065192;28;20116;-76
2023/05/16 08:55:26;;;;;;;10.50;4.15;;;;;;;;;;5068079;28;20028;-76
2023/05/16 08:57:52;;;;;;;11.15;5.07;;;;;;;;;;5066948;28;20103;-77
2023/05/16 09:00:18;;;;;;;15.32;5.05;;;;;;;;;;5084375;28;20047;-77
2023/05/16 09:02:45;;;;;;;17.95;4.78;;;;;;;;;;5065581;28;20037;-77
2023/05/16 09:05:15;;;;;;;11.00;4.22;;;;;;;;;;5068931;28;20016;-77
2023/05/16 09:07:41;;;;;;;11.77;5.00;;;;;;;;;;5063984;28;20047;-78
2023/05/16 09:10:08;;;;;;;9.40;4.10;;;;;;;;;;5060271;28;20136;-76
2023/05/16 09:12:34;;;;;;;12.02;4.55;;;;;;;;;;5060192;28;20028;-77
2023/05/16 09:15:04;;;;;;;9.32;4.22;;;;;;;;;;5068159;28;20027;-78
2023/05/16 09:17:37;;;;;;;9.02;4.35;;;;;;;;;;5066755;28;20048;-77
2023/05/16 09:20:10;;;;;;;13.00;4.75;;;;;;;;;;5055493;28;20024;-78
2023/05/16 09:22:37;;;;;;;6.00;3.80;;;;;;;;;;5063426;28;20059;-79
2023/05/16 09:25:04;;;;;;;13.70;4.07;;;;;;;;;;5066287;28;20437;-77
2023/05/16 09:27:31;;;;;;;11.40;5.15;;;;;;;;;;5061504;28;20029;-76
2023/05/16 09:29:57;;;;;;;15.63;3.85;;;;;;;;;;5060713;28;20024;-77
2023/05/16 09:32:24;;;;;;;7.55;3.58;;;;;;;;;;5063024;28;20024;-78
2023/05/16 09:34:52;;;;;;;10.43;4.07;;;;;;;;;;5065449;28;20035;-78
2023/05/16 09:37:19;;;;;;;10.15;3.83;;;;;;;;;;5064330;28;20510;-78
2023/05/16 09:39:47;;;;;;;12.27;4.55;;;;;;;;;;5061881;28;20036;-78
2023/05/16 09:42:14;;;;;;;19.17;4.78;;;;;;;;;;5066177;28;20078;-77
2023/05/16 09:44:41;;;;;;;10.20;4.18;;;;;;;;;;5060437;28;20032;-77
2023/05/16 09:47:07;;;;;;;10.45;3.97;;;;;;;;;;5066476;28;20562;-77
2023/05/16 09:49:33;;;;;;;9.60;4.10;;;;;;;;;;5061585;28;20066;-78
2023/05/16 09:52:03;;;;;;;11.48;4.38;;;;;;;;;;5055683;28;20070;-78
2023/05/16 09:54:32;;;;;;;8.55;4.03;;;;;;;;;;5066566;28;20028;-77
2023/05/16 09:56:59;;;;;;;9.60;3.50;;;;;;;;;;5063617;28;20413;-77
2023/05/16 09:59:25;;;;;;;10.35;4.07;;;;;;;;;;5064945;28;20162;-77
2023/05/16 10:01:53;;;;;;;9.35;4.20;;;;;;;;;;5064929;28;20070;-78
2023/05/16 10:04:19;;;;;;;10.38;3.58;;;;;;;;;;5059219;28;20016;-77
2023/05/16 10:06:45;;;;;;;13.70;5.07;;;;;;;;;;5066669;28;20166;-78
2023/05/16 10:09:12;;;;;;;9.85;4.10;;;;;;;;;;5060933;28;20433;-76
2023/05/16 10:11:44;;;;;;;10.07;4.32;;;;;;;;;;5066577;28;20059;-77
2023/05/16 10:14:11;;;;;;;12.55;3.70;;;;;;;;;;5069839;28;20024;-77
2023/05/16 10:16:42;;;;;;;10.10;4.10;;;;;;;;;;5067259;28;20056;-77
2023/05/16 10:19:08;;;;;;;9.73;4.15;;;;;;;;;;5064924;28;20398;-78
2023/05/16 10:21:35;;;;;;;5.97;3.78;;;;;;;;;;5060502;28;20379;-77
2023/05/16 10:24:03;;;;;;;7.32;3.78;;;;;;;;;;5060830;28;20059;-78
2023/05/16 10:26:30;;;;;;;8.50;3.97;;;;;;;;;;5066980;28;20031;-76
2023/05/16 10:28:56;;;;;;;8.27;4.40;;;;;;;;;;5065605;28;20527;-77
2023/05/16 10:31:23;;;;;;;11.10;4.40;;;;;;;;;;5069651;28;20043;-77
2023/05/16 10:33:49;;;;;;;10.43;4.20;;;;;;;;;;5064989;28;20028;-77
2023/05/16 10:36:16;;;;;;;10.90;3.90;;;;;;;;;;5067492;28;20031;-77
2023/05/16 10:38:42;;;;;;;11.52;5.07;;;;;;;;;;5063375;28;20055;-77
2023/05/16 10:41:09;;;;;;;8.43;4.22;;;;;;;;;;5065163;28;20046;-77
2023/05/16 10:43:35;;;;;;;6.80;3.33;;;;;;;;;;5060919;28;20517;-77
2023/05/16 10:46:06;;;;;;;7.93;4.18;;;;;;;;;;5070228;28;20142;-77
2023/05/16 10:48:34;;;;;;;14.38;4.40;;;;;;;;;;5062890;28;20016;-77
2023/05/16 10:51:01;;;;;;;9.35;3.63;;;;;;;;;;5054613;28;20450;-78
2023/05/16 10:53:32;;;;;;;6.72;4.03;;;;;;;;;;5063950;28;20028;-77
2023/05/16 10:56:02;;;;;;;8.90;3.97;;;;;;;;;;5056789;28;20036;-78
2023/05/16 10:58:31;;;;;;;6.85;3.85;;;;;;;;;;5063553;28;20020;-78
2023/05/16 11:01:16;;;;;;;6.97;4.57;;;;;;;;;;5056583;28;20029;-78
2023/05/16 11:04:03;;;;;;;9.77;3.92;;;;;;;;;;5058427;28;20032;-78
2023/05/16 11:06:29;;;;;;;8.25;4.45;;;;;;;;;;5056542;28;20040;-77
2023/05/16 11:11:46;;;;;;;9.57;4.57;;;;;;;;;;5064666;28;20032;-77
2023/05/16 11:14:22;;;;;;;7.75;4.05;;;;;;;;;;5063274;28;20086;-78
2023/05/16 11:16:50;;;;;;;9.25;3.70;;;;;;;;;;5059471;28;20486;-78
2023/05/16 11:19:29;;;;;;;11.23;4.43;;;;;;;;;;5060116;28;21310;-77
2023/05/16 11:22:07;;;;;;;12.32;4.72;;;;;;;;;;5061711;28;20102;-78
2023/05/16 11:24:34;;;;;;;9.85;4.00;;;;;;;;;;5071415;28;20036;-79
2023/05/16 11:27:01;;;;;;;10.05;4.45;;;;;;;;;;5066327;28;20036;-78
2023/05/16 11:29:36;;;;;;;9.10;3.60;;;;;;;;;;5060427;28;20107;-77
2023/05/16 11:32:04;;;;;;;9.57;3.92;;;;;;;;;;5082780;28;20086;-78
2023/05/16 11:34:31;;;;;;;9.75;4.38;;;;;;;;;;5063051;28;20040;-77
2023/05/16 11:36:59;;;;;;;8.40;4.18;;;;;;;;;;5074329;28;20028;-77
2023/05/16 11:39:25;;;;;;;9.45;4.75;;;;;;;;;;5070227;28;20024;-78
2023/05/16 11:41:51;;;;;;;10.15;3.88;;;;;;;;;;5068509;28;20473;-77
2023/05/16 11:44:17;;;;;;;6.47;3.67;;;;;;;;;;5072294;28;20381;-79
2023/05/16 11:46:44;;;;;;;8.68;4.13;;;;;;;;;;5068931;28;20310;-77
2023/05/16 11:49:11;;;;;;;8.13;4.10;;;;;;;;;;5064797;28;20062;-77
2023/05/16 11:51:43;;;;;;;9.02;3.95;;;;;;;;;;5061198;28;20021;-78
2023/05/16 11:54:10;;;;;;;9.32;4.45;;;;;;;;;;5069300;28;20490;-77
2023/05/16 11:56:36;;;;;;;7.95;4.72;;;;;;;;;;5073028;28;20036;-77
2023/05/16 11:59:03;;;;;;;8.95;4.50;;;;;;;;;;5068927;28;20036;-78
2023/05/16 12:01:36;;;;;;;9.07;4.00;;;;;;;;;;5084032;28;20060;-78
2023/05/16 12:04:07;;;;;;;8.48;4.75;;;;;;;;;;5061611;28;20032;-78
2023/05/16 12:06:33;;;;;;;8.93;4.65;;;;;;;;;;5061694;28;20483;-77
2023/05/16 12:09:02;;;;;;;10.65;4.00;;;;;;;;;;5062599;28;20085;-79
2023/05/16 12:11:29;;;;;;;10.43;4.32;;;;;;;;;;5059982;28;20557;-77
2023/05/16 12:13:55;;;;;;;10.25;4.63;;;;;;;;;;5067687;28;20493;-78
2023/05/16 12:16:22;;;;;;;7.97;4.15;;;;;;;;;;5066242;28;20024;-78
2023/05/16 12:18:48;;;;;;;8.32;4.28;;;;;;;;;;5065788;28;20033;-77
2023/05/16 12:21:15;;;;;;;7.95;4.50;;;;;;;;;;5069046;28;20077;-78
2023/05/16 12:23:42;;;;;;;9.80;4.22;;;;;;;;;;5063809;28;20052;-79
2023/05/16 12:26:08;;;;;;;8.55;4.22;;;;;;;;;;5070964;28;20036;-79
2023/05/16 12:28:37;;;;;;;9.55;4.47;;;;;;;;;;5068871;28;20373;-78
2023/05/16 12:31:03;;;;;;;9.98;4.00;;;;;;;;;;5066146;28;20024;-78
2023/05/16 12:33:29;;;;;;;6.55;3.85;;;;;;;;;;5063088;28;20336;-79
2023/05/16 12:35:55;;;;;;;8.85;3.50;;;;;;;;;;5069368;28;20033;-78
2023/05/16 12:38:25;;;;;;;6.63;4.03;;;;;;;;;;5074148;28;20024;-78
2023/05/16 12:40:57;;;;;;;8.73;4.40;;;;;;;;;;5067677;28;20028;-78
2023/05/16 12:43:23;;;;;;;8.10;3.97;;;;;;;;;;5064814;28;20052;-78
2023/05/16 12:45:53;;;;;;;8.10;3.50;;;;;;;;;;5069421;28;20056;-78
2023/05/16 12:48:19;;;;;;;6.80;3.80;;;;;;;;;;5063404;28;20033;-78
2023/05/16 12:50:45;;;;;;;7.15;3.78;;;;;;;;;;5083543;28;20460;-78
2023/05/16 12:53:13;;;;;;;6.50;3.50;;;;;;;;;;5055530;28;20497;-77
2023/05/16 12:55:39;;;;;;;8.95;3.80;;;;;;;;;;5077128;28;20031;-79
2023/05/16 12:58:06;;;;;;;9.13;4.00;;;;;;;;;;5066136;28;20127;-77
2023/05/16 13:00:50;;;;;;;8.38;3.65;;;;;;;;;;5069986;28;20024;-77
2023/05/16 13:03:16;;;;;;;7.65;4.50;;;;;;;;;;5057806;28;20032;-78
2023/05/16 13:05:43;;;;;;;8.50;3.78;;;;;;;;;;5070921;28;20083;-78
2023/05/16 13:08:09;;;;;;;7.95;3.85;;;;;;;;;;5065967;28;20032;-78
2023/05/16 13:10:35;;;;;;;11.75;4.28;;;;;;;;;;5066096;28;20060;-78
2023/05/16 13:13:01;;;;;;;9.38;3.65;;;;;;;;;;5064700;28;20040;-77
2023/05/16 13:15:27;;;;;;;8.25;3.83;;;;;;;;;;5063837;28;20354;-78
2023/05/16 13:17:53;;;;;;;8.48;5.03;;;;;;;;;;5059924;28;20033;-78
2023/05/16 13:20:20;;;;;;;10.43;4.05;;;;;;;;;;5064311;28;20512;-78
2023/05/16 13:22:46;;;;;;;7.43;3.80;;;;;;;;;;5067534;28;20839;-78
2023/05/16 13:25:12;;;;;;;6.28;3.63;;;;;;;;;;5064050;28;20087;-79
2023/05/16 13:27:38;;;;;;;11.60;5.07;;;;;;;;;;5073308;28;21245;-78
2023/05/16 13:30:04;;;;;;;8.02;4.47;;;;;;;;;;5070947;28;20076;-77
2023/05/16 13:32:30;;;;;;;8.68;3.60;;;;;;;;;;5058932;28;20075;-77
2023/05/16 13:34:57;;;;;;;7.50;4.07;;;;;;;;;;5057487;28;20099;-77
2023/05/16 13:37:26;;;;;;;7.50;3.08;;;;;;;;;;5069528;28;20032;-77
2023/05/16 13:39:55;;;;;;;13.75;3.88;;;;;;;;;;5061071;28;20414;-77
2023/05/16 13:42:21;;;;;;;8.05;3.47;;;;;;;;;;5059771;28;20071;-78
2023/05/16 13:44:47;;;;;;;7.25;3.95;;;;;;;;;;5067496;28;20032;-78
2023/05/16 13:47:13;;;;;;;6.45;3.90;;;;;;;;;;5063586;28;20032;-77
2023/05/16 13:49:39;;;;;;;6.68;4.50;;;;;;;;;;5047690;28;20099;-78
2023/05/16 13:52:05;;;;;;;10.35;4.15;;;;;;;;;;5067396;28;20124;-77
2023/05/16 13:54:32;;;;;;;9.20;3.50;;;;;;;;;;5052831;28;20029;-77
2023/05/16 13:56:58;;;;;;;9.30;3.65;;;;;;;;;;5060453;28;20033;-78
2023/05/16 13:59:25;;;;;;;7.20;3.75;;;;;;;;;;5062367;28;20021;-78
2023/05/16 14:01:51;;;;;;;7.88;3.75;;;;;;;;;;5056048;28;20067;-77
2023/05/16 14:04:17;;;;;;;12.10;4.30;;;;;;;;;;5059606;28;20516;-78
2023/05/16 14:06:43;;;;;;;6.18;3.88;;;;;;;;;;5055841;28;20505;-77
2023/05/16 14:09:09;;;;;;;9.00;3.40;;;;;;;;;;5073512;28;20432;-79
2023/05/16 14:11:35;;;;;;;9.90;4.53;;;;;;;;;;5055655;28;20048;-77
2023/05/16 14:14:01;;;;;;;7.90;3.67;;;;;;;;;;5059510;28;20040;-78
2023/05/16 14:16:29;;;;;;;5.70;3.22;;;;;;;;;;5052788;28;20024;-78
2023/05/16 14:18:55;;;;;;;6.13;4.03;;;;;;;;;;5057392;28;20025;-79
2023/05/16 14:21:22;;;;;;;7.32;3.78;;;;;;;;;;5055777;28;20028;-77
2023/05/16 14:23:48;;;;;;;5.68;3.50;;;;;;;;;;5061761;28;20702;-77
2023/05/16 14:26:15;;;;;;;8.02;3.50;;;;;;;;;;5063962;28;20036;-77
2023/05/16 14:28:43;;;;;;;13.70;4.43;;;;;;;;;;5078803;28;20056;-76
2023/05/16 14:31:09;;;;;;;5.53;3.03;;;;;;;;;;5058767;28;20055;-75
2023/05/16 14:33:35;;;;;;;7.05;3.50;;;;;;;;;;5066611;28;20016;-78
2023/05/16 14:36:01;;;;;;;7.65;3.97;;;;;;;;;;5069034;28;20084;-78
2023/05/16 14:38:27;;;;;;;7.82;4.20;;;;;;;;;;5069656;28;20032;-77
2023/05/16 14:40:54;;;;;;;8.70;3.83;;;;;;;;;;5069392;28;20020;-78
2023/05/16 14:43:20;;;;;;;5.30;4.15;;;;;;;;;;5068526;28;20080;-74